Terminal Aerodrome Forecast
Issued by NWS

Home | Current Version | Previous Version | Text Only | Print | Product List | Glossary On
Versions: 1 2 3 4 5 6 7 8 9 10 11 12 13 14 15 16 17 18 19
000
FTUS44 KLZK 251700
TAFBPK
TAF
KBPK 251720Z 2518/2618 27012G25KT P6SM SKC
     FM260000 28009KT P6SM SCT050
     FM260800 32004KT P6SM OVC005
      TEMPO 2610/2614 3SM BR
     FM261600 07012KT P6SM BKN020=

USA.gov is the U.S. government's official web portal to all federal, state and local government web resources and services.